createdAt,value
2019-03-25T00:09:04.850Z,24.70
2019-03-25T00:19:05.225Z,25.07
2019-03-25T00:29:10.752Z,25.77
2019-03-25T00:39:16.285Z,27.47
2019-03-25T00:49:22.103Z,24.33
2019-03-25T00:59:27.636Z,24.80
2019-03-25T01:09:33.355Z,24.90
2019-03-25T01:19:38.857Z,24.13
2019-03-25T01:29:44.999Z,24.97
2019-03-25T01:39:50.594Z,24.90
2019-03-25T01:49:56.209Z,25.63
2019-03-25T02:00:01.814Z,25.93
2019-03-25T02:10:09.707Z,23.80
2019-03-25T02:20:25.885Z,23.37
2019-03-25T02:30:22.382Z,25.60
2019-03-25T02:40:27.875Z,26.47
2019-03-25T02:50:33.492Z,24.63
2019-03-25T03:00:41.812Z,27.10
2019-03-25T03:10:47.342Z,26.53
2019-03-25T03:20:52.924Z,25.87
2019-03-25T03:30:58.422Z,25.60
2019-03-25T03:41:16.022Z,24.27
2019-03-25T03:51:21.639Z,24.67
2019-03-25T04:01:27.253Z,28.63
2019-03-25T04:11:32.781Z,23.07
2019-03-25T04:21:38.387Z,22.67
2019-03-25T04:31:43.887Z,21.73
2019-03-25T04:41:49.412Z,23.90
2019-03-25T04:51:54.907Z,25.37
2019-03-25T05:02:00.386Z,23.63
2019-03-25T05:12:06.222Z,22.10
2019-03-25T05:22:11.757Z,22.73
2019-03-25T05:32:17.235Z,23.57
2019-03-25T05:42:22.755Z,23.33
2019-03-25T05:52:28.355Z,22.70
2019-03-25T06:02:33.919Z,23.90
2019-03-25T06:12:39.454Z,21.47
2019-03-25T06:22:45.067Z,21.37
2019-03-25T06:32:50.574Z,20.93
2019-03-25T06:42:56.108Z,20.20
2019-03-25T06:53:01.623Z,18.33
2019-03-25T07:03:07.256Z,17.30
2019-03-25T07:13:13.742Z,13.33
2019-03-25T07:23:19.344Z,12.83
2019-03-25T07:33:24.845Z,12.33
2019-03-25T07:43:30.402Z,12.87
2019-03-25T07:53:35.972Z,12.47
2019-03-25T08:03:41.583Z,11.60
2019-03-25T08:13:47.182Z,12.13
2019-03-25T08:23:52.920Z,10.87
2019-03-25T08:33:58.477Z,9.23
2019-03-25T08:44:04.016Z,8.87
2019-03-25T08:54:09.648Z,8.90
2019-03-25T09:04:15.344Z,8.63
2019-03-25T09:14:20.939Z,8.37
2019-03-25T09:24:26.531Z,9.47
2019-03-25T09:34:32.156Z,10.30
2019-03-25T09:44:38.468Z,10.40
2019-03-25T09:54:43.978Z,12.67
2019-03-25T10:04:49.475Z,11.90
2019-03-25T10:14:55.035Z,11.77
2019-03-25T10:25:01.796Z,12.33
2019-03-25T10:35:08.487Z,12.63
2019-03-25T10:45:14.655Z,15.00
2019-03-25T10:55:20.290Z,17.57
2019-03-25T11:05:27.315Z,17.97
2019-03-25T11:15:33.141Z,15.73
2019-03-25T11:25:38.640Z,15.70
2019-03-25T11:35:44.218Z,17.83
2019-03-25T11:45:49.959Z,13.97
2019-03-25T11:55:55.578Z,13.57
2019-03-25T12:06:01.232Z,12.73
2019-03-25T12:16:06.970Z,13.53
2019-03-25T12:26:12.482Z,13.83
2019-03-25T12:36:18.103Z,14.67
2019-03-25T12:46:23.675Z,11.83
2019-03-25T12:56:29.271Z,13.73
2019-03-25T13:06:34.767Z,10.87
2019-03-25T13:16:40.290Z,7.13
2019-03-25T13:26:45.919Z,6.10
2019-03-25T13:36:51.555Z,8.23
2019-03-25T13:46:57.254Z,8.77
2019-03-25T13:57:02.921Z,9.03
2019-03-25T14:07:08.508Z,8.70
2019-03-25T14:17:14.065Z,9.47
2019-03-25T14:27:20.077Z,11.67
2019-03-25T14:37:25.803Z,11.37
2019-03-25T14:47:31.757Z,12.30
2019-03-25T14:57:38.156Z,21.60
2019-03-25T15:07:43.865Z,6.30
2019-03-25T15:17:49.619Z,7.33
2019-03-25T15:27:55.318Z,6.47
2019-03-25T15:38:01.203Z,11.77
2019-03-25T15:48:07.160Z,13.50
2019-03-25T15:58:13.159Z,11.53
2019-03-25T16:08:19.234Z,11.40
2019-03-25T16:18:34.044Z,10.60
2019-03-25T16:28:41.666Z,11.20
2019-03-25T16:38:47.949Z,11.10
2019-03-25T16:48:55.148Z,9.90
2019-03-25T16:59:01.366Z,14.17
2019-03-25T17:09:07.772Z,13.90
2019-03-25T17:19:15.914Z,12.07
2019-03-25T17:29:22.042Z,13.20
2019-03-25T17:39:27.954Z,17.10
2019-03-25T17:49:34.115Z,12.83
2019-03-25T17:59:40.265Z,13.70
2019-03-25T18:09:46.170Z,12.83
2019-03-25T18:19:52.179Z,13.03
2019-03-25T18:29:58.186Z,15.73
2019-03-25T18:40:06.137Z,16.97
2019-03-25T18:50:12.250Z,17.03
2019-03-25T19:00:33.437Z,16.97
2019-03-25T19:10:39.544Z,21.13
2019-03-25T19:20:45.569Z,25.13
2019-03-25T19:30:51.671Z,39.27
2019-03-25T19:40:57.793Z,37.57
2019-03-25T19:51:06.830Z,39.30
2019-03-25T20:01:14.292Z,31.83
2019-03-25T20:11:23.015Z,36.33
2019-03-25T20:21:29.448Z,32.53
2019-03-25T20:31:35.339Z,30.50
2019-03-25T20:41:41.593Z,31.70
2019-03-25T20:51:48.768Z,23.03
2019-03-25T21:01:54.775Z,18.53
2019-03-25T21:12:00.808Z,16.77
2019-03-25T21:22:06.924Z,17.40
2019-03-25T21:32:12.992Z,19.37
2019-03-25T21:42:18.776Z,25.23
2019-03-25T21:52:26.332Z,15.20
2019-03-25T22:02:31.959Z,12.20
2019-03-25T22:12:39.246Z,12.17
2019-03-25T22:22:45.240Z,12.70
2019-03-25T22:32:51.123Z,12.63
2019-03-25T22:42:56.624Z,13.40
2019-03-25T22:53:02.319Z,15.33
2019-03-25T23:03:08.016Z,14.53
2019-03-25T23:13:13.555Z,13.00
2019-03-25T23:23:19.129Z,13.57
2019-03-25T23:33:24.671Z,12.53
2019-03-25T23:43:30.272Z,12.77
2019-03-25T23:53:35.842Z,13.80
